Time;durP1;ratioP1;P1;durP2;ratioP2;P2;SDS_P1;SDS_P2;PMS_P1;PMS_P2;Temp;Humidity;BMP_temperature;BMP_pressure;BME280_temperature;BME280_humidity;BME280_pressure;Samples;Min_cycle;Max_cycle;Signal;HPM_P1;HPM_P2
2022/07/14 00:01:51;;;;;;;;;;;;;;;;;;4883456;29;20030;-82
2022/07/14 00:04:18;;;;;;;;;;;;;;;;;;4864939;29;19958;-82
2022/07/14 00:06:45;;;;;;;;;;;;;;;;;;4880805;29;19963;-82
2022/07/14 00:09:13;;;;;;;;;;;;;;;;;;4884139;29;19987;-82
2022/07/14 00:11:40;;;;;;;;;;;;;;;;;;4868237;29;19932;-82
2022/07/14 00:14:07;;;;;;;;;;;;;;;;;;4866643;29;19971;-82
2022/07/14 00:16:35;;;;;;;;;;;;;;;;;;4869153;29;19940;-82
2022/07/14 00:19:03;;;;;;;;;;;;;;;;;;4871401;29;19931;-82
2022/07/14 00:21:30;;;;;;;;;;;;;;;;;;4870936;29;19928;-81
2022/07/14 00:23:57;;;;;;;;;;;;;;;;;;4870574;29;19928;-82
2022/07/14 00:26:25;;;;;;;;;;;;;;;;;;4869497;29;20392;-81
2022/07/14 00:28:52;;;;;;;;;;;;;;;;;;4884452;29;19931;-82
2022/07/14 00:31:19;;;;;;;;;;;;;;;;;;4870491;29;20014;-82
2022/07/14 00:33:47;;;;;;;;;;;;;;;;;;4871088;29;20133;-82
2022/07/14 00:36:14;;;;;;;;;;;;;;;;;;4870162;29;20010;-81
2022/07/14 00:38:43;;;;;;;;;;;;;;;;;;4880822;29;19934;-82
2022/07/14 00:41:10;;;;;;;;;;;;;;;;;;4867418;29;20090;-82
2022/07/14 00:43:38;;;;;;;;;;;;;;;;;;4882758;29;19932;-82
2022/07/14 00:46:05;;;;;;;;;;;;;;;;;;4867492;29;19932;-82
2022/07/14 00:48:34;;;;;;;;;;;;;;;;;;4869527;29;19940;-82
2022/07/14 00:51:01;;;;;;;;;;;;;;;;;;4883805;29;19967;-82
2022/07/14 00:53:29;;;;;;;;;;;;;;;;;;4868159;29;20407;-82
2022/07/14 00:55:56;;;;;;;;;;;;;;;;;;4883457;29;19931;-82
2022/07/14 00:58:24;;;;;;;;;;;;;;;;;;4883011;29;19931;-82
2022/07/14 01:00:51;;;;;;;;;;;;;;;;;;4884138;29;20034;-82
2022/07/14 01:03:19;;;;;;;;;;;;;;;;;;4902014;23;20559;-77
2022/07/14 01:05:46;;;;;;;;;;;;;;;;;;4875756;29;20040;-77
2022/07/14 01:08:13;;;;;;;;;;;;;;;;;;4878524;29;19931;-77
2022/07/14 01:10:40;;;;;;;;;;;;;;;;;;4873575;29;19927;-77
2022/07/14 01:13:08;;;;;;;;;;;;;;;;;;4890246;29;20243;-77
2022/07/14 01:15:35;;;;;;;;;;;;;;;;;;4874591;29;19957;-77
2022/07/14 01:18:03;;;;;;;;;;;;;;;;;;4875124;29;20046;-77
2022/07/14 01:20:31;;;;;;;;;;;;;;;;;;4877119;29;19979;-77
2022/07/14 01:22:58;;;;;;;;;;;;;;;;;;4876219;29;19935;-77
2022/07/14 01:25:25;;;;;;;;;;;;;;;;;;4860532;29;20215;-77
2022/07/14 01:27:54;;;;;;;;;;;;;;;;;;4874538;29;19960;-77
2022/07/14 01:30:22;;;;;;;;;;;;;;;;;;4877776;29;19937;-77
2022/07/14 01:32:49;;;;;;;;;;;;;;;;;;4872315;29;19931;-77
2022/07/14 01:35:16;;;;;;;;;;;;;;;;;;4876368;29;20650;-77
2022/07/14 01:37:47;;;;;;;;;;;;;;;;;;4892945;29;19974;-77
2022/07/14 01:40:15;;;;;;;;;;;;;;;;;;4892559;29;20400;-77
2022/07/14 01:42:42;;;;;;;;;;;;;;;;;;4878621;29;19943;-77
2022/07/14 01:45:10;;;;;;;;;;;;;;;;;;4877951;29;19931;-77
2022/07/14 01:47:37;;;;;;;;;;;;;;;;;;4876159;29;19983;-77
2022/07/14 01:50:04;;;;;;;;;;;;;;;;;;4858970;29;19935;-77
2022/07/14 01:52:36;;;;;;;;;;;;;;;;;;4877110;29;19934;-77
2022/07/14 01:55:03;;;;;;;;;;;;;;;;;;4877049;29;19962;-77
2022/07/14 01:57:30;;;;;;;;;;;;;;;;;;4876017;29;19927;-77
2022/07/14 01:59:58;;;;;;;;;;;;;;;;;;4889645;29;20141;-77
2022/07/14 02:02:25;;;;;;;;;;;;;;;;;;4877007;29;20683;-77
2022/07/14 02:04:53;;;;;;;;;;;;;;;;;;4884737;29;19935;-77
2022/07/14 02:07:22;;;;;;;;;;;;;;;;;;4859426;29;20376;-77
2022/07/14 02:12:47;;;;;;;;;;;;;;;;;;4890452;29;20380;-77
2022/07/14 02:15:14;;;;;;;;;;;;;;;;;;4873934;29;20458;-77
2022/07/14 02:17:42;;;;;;;;;;;;;;;;;;4875937;29;20574;-77
2022/07/14 02:20:10;;;;;;;;;;;;;;;;;;4872848;29;19966;-77
2022/07/14 02:22:37;;;;;;;;;;;;;;;;;;4892392;29;19934;-77
2022/07/14 02:25:05;;;;;;;;;;;;;;;;;;4878326;29;20443;-77
2022/07/14 02:27:32;;;;;;;;;;;;;;;;;;4877537;29;20017;-77
2022/07/14 02:29:59;;;;;;;;;;;;;;;;;;4877431;29;20439;-77
2022/07/14 02:32:29;;;;;;;;;;;;;;;;;;4873677;29;19935;-77
2022/07/14 02:34:56;;;;;;;;;;;;;;;;;;4900698;29;19970;-77
2022/07/14 02:37:23;;;;;;;;;;;;;;;;;;4889337;29;20300;-77
2022/07/14 02:39:51;;;;;;;;;;;;;;;;;;4888278;29;19935;-77
2022/07/14 02:42:18;;;;;;;;;;;;;;;;;;4888978;29;19927;-77
2022/07/14 02:44:46;;;;;;;;;;;;;;;;;;4898967;23;19954;-79
2022/07/14 02:47:13;;;;;;;;;;;;;;;;;;4896091;29;20344;-78
2022/07/14 02:49:40;;;;;;;;;;;;;;;;;;4889545;29;19931;-78
2022/07/14 02:52:08;;;;;;;;;;;;;;;;;;4891494;29;20388;-78
2022/07/14 02:54:37;;;;;;;;;;;;;;;;;;4891007;29;19927;-79
2022/07/14 02:57:04;;;;;;;;;;;;;;;;;;4890620;29;19930;-79
2022/07/14 02:59:32;;;;;;;;;;;;;;;;;;4859679;29;19933;-79
2022/07/14 03:01:59;;;;;;;;;;;;;;;;;;4875544;29;19978;-78
2022/07/14 03:04:27;;;;;;;;;;;;;;;;;;4900955;29;19927;-78
2022/07/14 03:06:55;;;;;;;;;;;;;;;;;;4905545;29;19958;-78
2022/07/14 03:09:24;;;;;;;;;;;;;;;;;;4917101;29;19963;-78
2022/07/14 03:11:51;;;;;;;;;;;;;;;;;;4914266;29;19994;-78
2022/07/14 03:14:19;;;;;;;;;;;;;;;;;;4898142;29;20268;-78
2022/07/14 03:16:46;;;;;;;;;;;;;;;;;;4895904;29;19923;-78
2022/07/14 03:19:14;;;;;;;;;;;;;;;;;;4892162;29;20339;-78
2022/07/14 03:21:43;;;;;;;;;;;;;;;;;;4881354;29;20228;-79
2022/07/14 03:24:13;;;;;;;;;;;;;;;;;;4904437;29;19923;-79
2022/07/14 03:26:40;;;;;;;;;;;;;;;;;;4893956;29;19927;-79
2022/07/14 03:29:08;;;;;;;;;;;;;;;;;;4890893;29;19935;-78
2022/07/14 03:31:36;;;;;;;;;;;;;;;;;;4907658;29;19923;-77
2022/07/14 03:34:06;;;;;;;;;;;;;;;;;;4880683;29;20460;-78
2022/07/14 03:36:37;;;;;;;;;;;;;;;;;;4913159;29;19928;-78
2022/07/14 03:39:07;;;;;;;;;;;;;;;;;;4897275;29;19923;-79
2022/07/14 03:41:35;;;;;;;;;;;;;;;;;;4881054;29;19927;-79
2022/07/14 03:44:03;;;;;;;;;;;;;;;;;;4911350;29;19982;-79
2022/07/14 03:46:30;;;;;;;;;;;;;;;;;;4903846;29;20013;-79
2022/07/14 03:49:05;;;;;;;;;;;;;;;;;;4910353;29;19927;-80
2022/07/14 03:51:33;;;;;;;;;;;;;;;;;;4896280;29;19936;-79
2022/07/14 03:54:00;;;;;;;;;;;;;;;;;;4910923;29;19923;-78
2022/07/14 03:56:29;;;;;;;;;;;;;;;;;;4894815;29;19927;-81
2022/07/14 03:58:59;;;;;;;;;;;;;;;;;;4901020;29;19930;-80
2022/07/14 04:01:29;;;;;;;;;;;;;;;;;;4904049;29;20323;-79
2022/07/14 04:03:59;;;;;;;;;;;;;;;;;;4896416;29;19927;-78
2022/07/14 04:06:27;;;;;;;;;;;;;;;;;;4915993;29;20377;-80
2022/07/14 04:08:55;;;;;;;;;;;;;;;;;;4913839;29;21114;-78
2022/07/14 04:11:23;;;;;;;;;;;;;;;;;;4924408;29;19930;-78
2022/07/14 04:13:50;;;;;;;;;;;;;;;;;;4922376;29;20015;-78
2022/07/14 04:16:18;;;;;;;;;;;;;;;;;;4878417;29;19931;-78
2022/07/14 04:18:52;;;;;;;;;;;;;;;;;;4894516;29;19927;-78
2022/07/14 04:21:20;;;;;;;;;;;;;;;;;;4908914;29;20376;-79
2022/07/14 04:23:47;;;;;;;;;;;;;;;;;;4884180;29;20002;-79
2022/07/14 04:26:14;;;;;;;;;;;;;;;;;;4893572;29;20308;-78
2022/07/14 04:28:42;;;;;;;;;;;;;;;;;;4893806;29;19929;-78
2022/07/14 04:31:09;;;;;;;;;;;;;;;;;;4893314;29;19939;-78
2022/07/14 04:33:39;;;;;;;;;;;;;;;;;;4893742;29;20578;-79
2022/07/14 04:36:07;;;;;;;;;;;;;;;;;;4898269;29;20047;-78
2022/07/14 04:38:34;;;;;;;;;;;;;;;;;;4915324;29;19927;-78
2022/07/14 04:41:02;;;;;;;;;;;;;;;;;;4905908;29;19928;-77
2022/07/14 04:43:33;;;;;;;;;;;;;;;;;;4910586;29;20027;-78
2022/07/14 04:46:03;;;;;;;;;;;;;;;;;;4893236;29;19931;-77
2022/07/14 04:52:01;;;;;;;;;;;;;;;;;;4908083;29;20023;-78
2022/07/14 04:54:06;;;;;;;;;;;;;;;;;;4888895;29;19935;-78
2022/07/14 04:56:50;;;;;;;;;;;;;;;;;;4891623;29;20316;-78
2022/07/14 04:59:32;;;;;;;;;;;;;;;;;;4892658;29;19936;-78
2022/07/14 05:02:00;;;;;;;;;;;;;;;;;;4903520;29;19962;-79
2022/07/14 05:04:28;;;;;;;;;;;;;;;;;;4891259;29;20022;-78
2022/07/14 05:06:56;;;;;;;;;;;;;;;;;;4907305;29;20014;-79
2022/07/14 05:09:25;;;;;;;;;;;;;;;;;;4907803;29;20368;-78
2022/07/14 05:11:52;;;;;;;;;;;;;;;;;;4889961;29;20311;-78
2022/07/14 05:14:20;;;;;;;;;;;;;;;;;;4908396;29;19934;-78
2022/07/14 05:16:51;;;;;;;;;;;;;;;;;;4876580;29;20321;-78
2022/07/14 05:19:39;;;;;;;;;;;;;;;;;;4876496;29;19970;-78
2022/07/14 05:22:06;;;;;;;;;;;;;;;;;;4885155;29;19927;-78
2022/07/14 05:24:34;;;;;;;;;;;;;;;;;;4905337;29;19952;-78
2022/07/14 05:27:02;;;;;;;;;;;;;;;;;;4876670;29;20023;-78
2022/07/14 05:29:33;;;;;;;;;;;;;;;;;;4873132;29;19930;-78
2022/07/14 05:32:00;;;;;;;;;;;;;;;;;;4892407;29;19927;-78
2022/07/14 05:34:30;;;;;;;;;;;;;;;;;;4890237;29;20002;-78
2022/07/14 05:36:59;;;;;;;;;;;;;;;;;;4874273;29;19935;-79
2022/07/14 05:39:26;;;;;;;;;;;;;;;;;;4885160;29;19923;-80
2022/07/14 05:41:53;;;;;;;;;;;;;;;;;;4891732;29;20315;-79
2022/07/14 05:44:21;;;;;;;;;;;;;;;;;;4873148;29;19982;-78
2022/07/14 05:46:48;;;;;;;;;;;;;;;;;;4888263;29;19975;-78
2022/07/14 05:49:18;;;;;;;;;;;;;;;;;;4907607;29;19927;-78
2022/07/14 05:51:50;;;;;;;;;;;;;;;;;;4892647;29;19931;-79
2022/07/14 05:54:18;;;;;;;;;;;;;;;;;;4889603;29;19927;-78
2022/07/14 05:56:45;;;;;;;;;;;;;;;;;;4906284;29;19930;-78
2022/07/14 05:59:13;;;;;;;;;;;;;;;;;;4862636;29;20030;-78
2022/07/14 06:02:00;;;;;;;;;;;;;;;;;;4891954;29;19927;-79
2022/07/14 06:04:28;;;;;;;;;;;;;;;;;;4905328;29;20340;-78
2022/07/14 06:06:56;;;;;;;;;;;;;;;;;;4884265;29;19928;-78
2022/07/14 06:09:24;;;;;;;;;;;;;;;;;;4882338;29;19927;-79
2022/07/14 06:11:52;;;;;;;;;;;;;;;;;;4886165;29;19930;-78
2022/07/14 06:14:21;;;;;;;;;;;;;;;;;;4872553;29;19998;-79
2022/07/14 06:16:48;;;;;;;;;;;;;;;;;;4887997;29;19927;-78
2022/07/14 06:19:16;;;;;;;;;;;;;;;;;;4898096;29;19930;-79
2022/07/14 06:21:43;;;;;;;;;;;;;;;;;;4903884;29;19927;-79
2022/07/14 06:24:12;;;;;;;;;;;;;;;;;;4888022;29;20107;-79
2022/07/14 06:26:41;;;;;;;;;;;;;;;;;;4887652;29;19933;-79
2022/07/14 06:29:10;;;;;;;;;;;;;;;;;;4897218;29;19927;-79
2022/07/14 06:31:37;;;;;;;;;;;;;;;;;;4888584;29;19937;-80
2022/07/14 06:34:06;;;;;;;;;;;;;;;;;;4906765;29;19927;-83
2022/07/14 06:36:53;;;;;;;;;;;;;;;;;;4889624;29;20034;-81
2022/07/14 06:39:22;;;;;;;;;;;;;;;;;;4909266;29;19931;-83
2022/07/14 06:41:50;;;;;;;;;;;;;;;;;;4891936;29;19935;-80
2022/07/14 06:44:22;;;;;;;;;;;;;;;;;;4910942;29;20451;-79
2022/07/14 06:46:54;;;;;;;;;;;;;;;;;;4907946;29;19930;-80
2022/07/14 06:49:22;;;;;;;;;;;;;;;;;;4898154;29;19946;-79
2022/07/14 06:51:49;;;;;;;;;;;;;;;;;;4903620;29;19927;-79
2022/07/14 06:54:23;;;;;;;;;;;;;;;;;;4892123;29;19962;-79
2022/07/14 06:56:50;;;;;;;;;;;;;;;;;;4896345;29;19982;-79
2022/07/14 06:59:17;;;;;;;;;;;;;;;;;;4904196;29;19923;-79
2022/07/14 07:01:45;;;;;;;;;;;;;;;;;;4902919;29;20348;-80
2022/07/14 07:04:12;;;;;;;;;;;;;;;;;;4899985;29;20316;-79
2022/07/14 07:06:49;;;;;;;;;;;;;;;;;;4884626;29;19927;-79
2022/07/14 07:09:16;;;;;;;;;;;;;;;;;;4884283;29;19923;-78
2022/07/14 07:11:44;;;;;;;;;;;;;;;;;;4891461;29;19933;-78
2022/07/14 07:14:11;;;;;;;;;;;;;;;;;;4892950;29;19983;-79
2022/07/14 07:16:39;;;;;;;;;;;;;;;;;;4889198;29;19927;-79
2022/07/14 07:19:07;;;;;;;;;;;;;;;;;;4892519;29;19924;-78
2022/07/14 07:21:34;;;;;;;;;;;;;;;;;;4890914;29;19931;-78
2022/07/14 07:24:02;;;;;;;;;;;;;;;;;;4892286;29;19986;-79
2022/07/14 07:26:29;;;;;;;;;;;;;;;;;;4891155;29;20006;-79
2022/07/14 07:28:56;;;;;;;;;;;;;;;;;;4893045;29;19991;-78
2022/07/14 07:31:29;;;;;;;;;;;;;;;;;;4872016;29;19931;-79
2022/07/14 07:33:56;;;;;;;;;;;;;;;;;;4907615;29;19935;-79
2022/07/14 07:36:24;;;;;;;;;;;;;;;;;;4892264;29;20042;-78
2022/07/14 07:38:51;;;;;;;;;;;;;;;;;;4891643;29;20420;-78
2022/07/14 07:41:18;;;;;;;;;;;;;;;;;;4894137;29;20004;-79
2022/07/14 07:43:45;;;;;;;;;;;;;;;;;;4907755;29;19975;-79
2022/07/14 07:46:13;;;;;;;;;;;;;;;;;;4892113;29;19974;-78
2022/07/14 07:48:40;;;;;;;;;;;;;;;;;;4896143;29;20065;-79
2022/07/14 07:51:08;;;;;;;;;;;;;;;;;;4896587;29;19923;-80
2022/07/14 07:53:36;;;;;;;;;;;;;;;;;;4884197;29;19923;-80
2022/07/14 07:56:03;;;;;;;;;;;;;;;;;;4897261;29;19959;-80
2022/07/14 07:58:30;;;;;;;;;;;;;;;;;;4895599;29;20192;-80
2022/07/14 08:00:58;;;;;;;;;;;;;;;;;;4898362;29;19927;-80
2022/07/14 08:03:25;;;;;;;;;;;;;;;;;;4892518;29;19931;-80
2022/07/14 08:05:52;;;;;;;;;;;;;;;;;;4894581;29;19927;-80
2022/07/14 08:08:40;;;;;;;;;;;;;;;;;;4894718;29;19928;-79
2022/07/14 08:11:07;;;;;;;;;;;;;;;;;;4905033;29;20400;-79
2022/07/14 08:13:35;;;;;;;;;;;;;;;;;;4896367;29;19927;-79
2022/07/14 08:16:04;;;;;;;;;;;;;;;;;;4896700;29;19924;-79
2022/07/14 08:18:31;;;;;;;;;;;;;;;;;;4881296;29;19927;-79
2022/07/14 08:20:58;;;;;;;;;;;;;;;;;;4897749;29;20361;-79
2022/07/14 08:23:27;;;;;;;;;;;;;;;;;;4909267;29;20026;-79
2022/07/14 08:25:54;;;;;;;;;;;;;;;;;;4895119;29;19935;-79
2022/07/14 08:28:22;;;;;;;;;;;;;;;;;;4894249;29;19928;-79
2022/07/14 08:30:49;;;;;;;;;;;;;;;;;;4892519;29;19930;-78
2022/07/14 08:33:16;;;;;;;;;;;;;;;;;;4925342;29;19931;-79
2022/07/14 08:35:47;;;;;;;;;;;;;;;;;;4909244;29;19930;-79
2022/07/14 08:38:14;;;;;;;;;;;;;;;;;;4922138;29;19927;-80
2022/07/14 08:40:41;;;;;;;;;;;;;;;;;;4895216;29;20033;-79
2022/07/14 08:43:09;;;;;;;;;;;;;;;;;;4907068;29;19988;-79
2022/07/14 08:45:37;;;;;;;;;;;;;;;;;;4947989;23;19934;-77
2022/07/14 08:48:04;;;;;;;;;;;;;;;;;;4885146;29;20394;-76
2022/07/14 08:50:31;;;;;;;;;;;;;;;;;;4883633;29;20390;-76
2022/07/14 08:52:59;;;;;;;;;;;;;;;;;;4885134;29;19927;-77
2022/07/14 08:55:28;;;;;;;;;;;;;;;;;;4890795;29;19927;-76
2022/07/14 08:57:55;;;;;;;;;;;;;;;;;;4876271;29;19927;-77
2022/07/14 09:00:23;;;;;;;;;;;;;;;;;;4892540;29;19955;-76
2022/07/14 09:02:55;;;;;;;;;;;;;;;;;;4891398;29;19923;-77
2022/07/14 09:05:38;;;;;;;;;;;;;;;;;;4891895;29;20018;-77
2022/07/14 09:08:05;;;;;;;;;;;;;;;;;;4888413;29;20399;-77
2022/07/14 09:10:33;;;;;;;;;;;;;;;;;;4874169;29;19931;-78
2022/07/14 09:13:19;;;;;;;;;;;;;;;;;;4889652;29;20320;-77
2022/07/14 09:15:47;;;;;;;;;;;;;;;;;;4891102;29;20393;-77
2022/07/14 09:18:14;;;;;;;;;;;;;;;;;;4887713;29;19927;-75
2022/07/14 09:20:41;;;;;;;;;;;;;;;;;;4884336;29;19927;-77
2022/07/14 09:23:09;;;;;;;;;;;;;;;;;;4888637;29;19931;-77
2022/07/14 09:25:38;;;;;;;;;;;;;;;;;;4893205;29;20022;-77
2022/07/14 09:28:07;;;;;;;;;;;;;;;;;;4893380;29;19934;-77
2022/07/14 09:30:34;;;;;;;;;;;;;;;;;;4888961;29;21278;-76
2022/07/14 09:33:01;;;;;;;;;;;;;;;;;;4882116;29;19928;-77
2022/07/14 09:35:29;;;;;;;;;;;;;;;;;;4905360;29;19939;-77
2022/07/14 09:37:56;;;;;;;;;;;;;;;;;;4901677;29;19937;-77
2022/07/14 09:40:25;;;;;;;;;;;;;;;;;;4890104;29;19927;-78
2022/07/14 09:43:03;;;;;;;;;;;;;;;;;;4898293;29;19927;-77
2022/07/14 09:45:30;;;;;;;;;;;;;;;;;;4895965;29;20341;-77
2022/07/14 09:47:58;;;;;;;;;;;;;;;;;;4876683;29;19927;-78
2022/07/14 09:50:26;;;;;;;;;;;;;;;;;;4876386;29;19931;-78
2022/07/14 09:52:53;;;;;;;;;;;;;;;;;;4888606;29;20368;-77
2022/07/14 09:55:21;;;;;;;;;;;;;;;;;;4897734;29;20018;-80
2022/07/14 09:57:49;;;;;;;;;;;;;;;;;;4883084;29;19927;-77
2022/07/14 10:00:19;;;;;;;;;;;;;;;;;;4905002;29;19941;-77
2022/07/14 10:02:46;;;;;;;;;;;;;;;;;;4869800;29;20937;-78
2022/07/14 10:05:14;;;;;;;;;;;;;;;;;;4888320;29;19923;-78
2022/07/14 10:07:45;;;;;;;;;;;;;;;;;;4909258;29;19949;-78
2022/07/14 10:10:19;;;;;;;;;;;;;;;;;;4897703;29;19931;-78
2022/07/14 10:12:48;;;;;;;;;;;;;;;;;;4900521;29;19934;-77
2022/07/14 10:15:15;;;;;;;;;;;;;;;;;;4894367;29;20022;-76
2022/07/14 10:17:42;;;;;;;;;;;;;;;;;;4891178;29;19935;-78
2022/07/14 10:20:10;;;;;;;;;;;;;;;;;;4880398;29;20396;-79
2022/07/14 10:22:40;;;;;;;;;;;;;;;;;;4900647;29;19927;-76
2022/07/14 10:25:09;;;;;;;;;;;;;;;;;;4900928;29;19928;-78
2022/07/14 10:27:39;;;;;;;;;;;;;;;;;;4905541;29;19931;-77
2022/07/14 10:30:06;;;;;;;;;;;;;;;;;;4918610;29;20018;-78
2022/07/14 10:32:34;;;;;;;;;;;;;;;;;;4894834;29;20030;-78
2022/07/14 10:35:01;;;;;;;;;;;;;;;;;;4893486;29;19934;-77
2022/07/14 10:37:28;;;;;;;;;;;;;;;;;;4892003;29;19924;-77
2022/07/14 10:39:58;;;;;;;;;;;;;;;;;;4874309;29;19934;-77
2022/07/14 10:42:26;;;;;;;;;;;;;;;;;;4892439;29;19938;-77
2022/07/14 10:44:53;;;;;;;;;;;;;;;;;;4892345;29;20031;-77
2022/07/14 10:47:23;;;;;;;;;;;;;;;;;;4888734;29;19924;-77
2022/07/14 10:49:50;;;;;;;;;;;;;;;;;;4889233;29;19927;-77
2022/07/14 10:52:17;;;;;;;;;;;;;;;;;;4891229;29;19955;-77
2022/07/14 10:54:45;;;;;;;;;;;;;;;;;;4890780;29;19928;-77
2022/07/14 10:57:12;;;;;;;;;;;;;;;;;;4892241;29;20022;-77
2022/07/14 10:59:40;;;;;;;;;;;;;;;;;;4892668;29;19931;-77
2022/07/14 11:02:08;;;;;;;;;;;;;;;;;;4893459;29;19923;-77
2022/07/14 11:04:35;;;;;;;;;;;;;;;;;;4891058;29;19947;-77
2022/07/14 11:07:03;;;;;;;;;;;;;;;;;;4891574;29;19927;-77
2022/07/14 11:09:30;;;;;;;;;;;;;;;;;;4892589;29;20343;-77
2022/07/14 11:11:57;;;;;;;;;;;;;;;;;;4890642;29;20380;-77
2022/07/14 11:14:25;;;;;;;;;;;;;;;;;;4892860;29;19961;-77
2022/07/14 11:16:53;;;;;;;;;;;;;;;;;;4887179;29;20186;-77
2022/07/14 11:19:21;;;;;;;;;;;;;;;;;;4891264;29;20010;-76
2022/07/14 11:21:48;;;;;;;;;;;;;;;;;;4891510;29;19924;-77
2022/07/14 11:24:16;;;;;;;;;;;;;;;;;;4896790;29;20007;-77
2022/07/14 11:26:50;;;;;;;;;;;;;;;;;;4899443;29;20281;-77
2022/07/14 11:29:17;;;;;;;;;;;;;;;;;;4895709;29;19958;-77
2022/07/14 11:31:44;;;;;;;;;;;;;;;;;;4895797;29;19945;-77
2022/07/14 11:37:00;;;;;;;;;;;;;;;;;;4898678;29;20001;-78
2022/07/14 11:39:50;;;;;;;;;;;;;;;;;;4899410;29;19938;-78
2022/07/14 11:42:17;;;;;;;;;;;;;;;;;;4899891;29;19927;-78
2022/07/14 11:44:45;;;;;;;;;;;;;;;;;;4896812;29;20289;-78
2022/07/14 11:47:12;;;;;;;;;;;;;;;;;;4890635;29;19928;-79
2022/07/14 11:49:40;;;;;;;;;;;;;;;;;;4894907;29;19971;-79
2022/07/14 11:52:08;;;;;;;;;;;;;;;;;;4899809;29;20025;-78
2022/07/14 11:54:35;;;;;;;;;;;;;;;;;;4898394;29;19927;-78
2022/07/14 11:57:03;;;;;;;;;;;;;;;;;;4895154;29;20035;-76
2022/07/14 11:59:31;;;;;;;;;;;;;;;;;;4885567;29;19978;-75
2022/07/14 12:01:58;;;;;;;;;;;;;;;;;;4891040;29;19966;-75
2022/07/14 12:04:26;;;;;;;;;;;;;;;;;;4893537;29;19965;-77
2022/07/14 12:06:53;;;;;;;;;;;;;;;;;;4894112;29;19927;-77
2022/07/14 12:09:20;;;;;;;;;;;;;;;;;;4893675;29;19939;-77
2022/07/14 12:11:59;;;;;;;;;;;;;;;;;;4896909;29;19930;-77
2022/07/14 12:14:27;;;;;;;;;;;;;;;;;;4896199;29;19939;-78
2022/07/14 12:16:55;;;;;;;;;;;;;;;;;;4895397;29;19978;-78
2022/07/14 12:19:23;;;;;;;;;;;;;;;;;;4895717;29;20562;-78
2022/07/14 12:21:50;;;;;;;;;;;;;;;;;;4888221;29;19991;-78
2022/07/14 12:24:17;;;;;;;;;;;;;;;;;;4893780;29;19949;-78
2022/07/14 12:26:45;;;;;;;;;;;;;;;;;;4893858;29;20002;-78
2022/07/14 12:29:15;;;;;;;;;;;;;;;;;;4894908;29;19977;-78
2022/07/14 12:31:42;;;;;;;;;;;;;;;;;;4897517;29;20015;-78
2022/07/14 12:34:10;;;;;;;;;;;;;;;;;;4892941;29;19934;-77
2022/07/14 12:36:41;;;;;;;;;;;;;;;;;;4887749;29;19998;-78
2022/07/14 12:39:09;;;;;;;;;;;;;;;;;;4900882;29;20380;-78
2022/07/14 12:41:44;;;;;;;;;;;;;;;;;;4889597;29;19923;-78
2022/07/14 12:44:11;;;;;;;;;;;;;;;;;;4895785;29;19935;-78
2022/07/14 12:46:38;;;;;;;;;;;;;;;;;;4888603;29;19927;-78
2022/07/14 12:49:05;;;;;;;;;;;;;;;;;;4898457;29;19923;-78
2022/07/14 12:51:33;;;;;;;;;;;;;;;;;;4894127;29;20400;-79
2022/07/14 12:54:03;;;;;;;;;;;;;;;;;;4895150;29;20451;-78
2022/07/14 12:56:31;;;;;;;;;;;;;;;;;;4894899;29;19927;-78
2022/07/14 12:58:59;;;;;;;;;;;;;;;;;;4896291;29;19934;-77
2022/07/14 13:01:26;;;;;;;;;;;;;;;;;;4895665;29;19946;-78
2022/07/14 13:03:53;;;;;;;;;;;;;;;;;;4889350;29;19927;-78
2022/07/14 13:06:21;;;;;;;;;;;;;;;;;;4883050;29;19932;-78
2022/07/14 13:08:48;;;;;;;;;;;;;;;;;;4882165;29;19975;-78
2022/07/14 13:11:16;;;;;;;;;;;;;;;;;;4883124;29;19935;-78
2022/07/14 13:13:43;;;;;;;;;;;;;;;;;;4884795;29;19935;-79
2022/07/14 13:16:10;;;;;;;;;;;;;;;;;;4883121;29;20146;-77
2022/07/14 13:18:38;;;;;;;;;;;;;;;;;;4882878;29;19932;-79
2022/07/14 13:21:06;;;;;;;;;;;;;;;;;;4885363;29;19982;-78
2022/07/14 13:23:36;;;;;;;;;;;;;;;;;;4881827;29;19938;-78
2022/07/14 13:26:04;;;;;;;;;;;;;;;;;;4881956;29;19963;-78
2022/07/14 13:28:32;;;;;;;;;;;;;;;;;;4875497;29;20349;-77
2022/07/14 13:30:59;;;;;;;;;;;;;;;;;;4876315;29;19995;-77
2022/07/14 13:33:26;;;;;;;;;;;;;;;;;;4876622;29;20376;-78
2022/07/14 13:35:54;;;;;;;;;;;;;;;;;;4877467;29;19971;-77
2022/07/14 13:38:21;;;;;;;;;;;;;;;;;;4879898;29;20057;-77
2022/07/14 13:40:48;;;;;;;;;;;;;;;;;;4875868;29;19938;-77
2022/07/14 13:43:16;;;;;;;;;;;;;;;;;;4874493;29;19931;-77
2022/07/14 13:45:43;;;;;;;;;;;;;;;;;;4876989;29;20060;-77
2022/07/14 13:48:10;;;;;;;;;;;;;;;;;;4874587;29;19934;-77
2022/07/14 13:53:24;;;;;;;;;;;;;;;;;;4879860;29;20026;-77
2022/07/14 13:55:51;;;;;;;;;;;;;;;;;;4877747;29;19938;-79
2022/07/14 13:58:18;;;;;;;;;;;;;;;;;;4876715;29;19927;-77
2022/07/14 14:00:45;;;;;;;;;;;;;;;;;;4879856;29;19931;-77
2022/07/14 14:03:23;;;;;;;;;;;;;;;;;;4874928;29;20340;-77
2022/07/14 14:05:50;;;;;;;;;;;;;;;;;;4879434;29;19927;-78
2022/07/14 14:08:17;;;;;;;;;;;;;;;;;;4879036;29;19938;-77
2022/07/14 14:10:45;;;;;;;;;;;;;;;;;;4878936;29;19927;-77
2022/07/14 14:13:12;;;;;;;;;;;;;;;;;;4883533;29;20403;-78
2022/07/14 14:15:40;;;;;;;;;;;;;;;;;;4879088;29;20010;-78
2022/07/14 14:18:07;;;;;;;;;;;;;;;;;;4878638;29;20020;-78
2022/07/14 14:20:34;;;;;;;;;;;;;;;;;;4880159;29;20411;-77
2022/07/14 14:23:02;;;;;;;;;;;;;;;;;;4879209;29;19932;-77
2022/07/14 14:25:29;;;;;;;;;;;;;;;;;;4876755;29;19935;-78
2022/07/14 14:27:56;;;;;;;;;;;;;;;;;;4876775;29;20026;-77
2022/07/14 14:30:24;;;;;;;;;;;;;;;;;;4870325;29;20618;-77
2022/07/14 14:32:52;;;;;;;;;;;;;;;;;;4877674;29;19938;-76
2022/07/14 14:35:32;;;;;;;;;;;;;;;;;;4878066;29;20581;-77
2022/07/14 14:37:59;;;;;;;;;;;;;;;;;;4876965;29;19927;-77
2022/07/14 14:40:26;;;;;;;;;;;;;;;;;;4879488;29;20623;-77
2022/07/14 14:42:54;;;;;;;;;;;;;;;;;;4875434;29;19928;-77
2022/07/14 14:45:21;;;;;;;;;;;;;;;;;;4940331;23;20470;-85
2022/07/14 14:47:51;;;;;;;;;;;;;;;;;;4887360;29;19947;-84
2022/07/14 14:50:19;;;;;;;;;;;;;;;;;;4884829;29;19932;-85
2022/07/14 14:52:50;;;;;;;;;;;;;;;;;;4886021;29;19995;-82
2022/07/14 14:55:22;;;;;;;;;;;;;;;;;;4886591;29;20645;-84
2022/07/14 14:57:50;;;;;;;;;;;;;;;;;;4884964;29;20574;-82
2022/07/14 15:00:17;;;;;;;;;;;;;;;;;;4883031;29;19986;-83
2022/07/14 15:02:45;;;;;;;;;;;;;;;;;;4887897;29;20018;-82
2022/07/14 15:05:12;;;;;;;;;;;;;;;;;;4887796;29;19962;-82
2022/07/14 15:07:39;;;;;;;;;;;;;;;;;;4889728;29;20036;-83
2022/07/14 15:10:06;;;;;;;;;;;;;;;;;;4886950;29;20158;-84
2022/07/14 15:12:34;;;;;;;;;;;;;;;;;;4871656;29;19982;-83
2022/07/14 15:15:01;;;;;;;;;;;;;;;;;;4887174;29;19927;-82
2022/07/14 15:17:29;;;;;;;;;;;;;;;;;;4896629;29;19931;-83
2022/07/14 15:19:56;;;;;;;;;;;;;;;;;;4888830;29;19928;-82
2022/07/14 15:22:23;;;;;;;;;;;;;;;;;;4873227;29;19931;-85
2022/07/14 15:24:51;;;;;;;;;;;;;;;;;;4888825;29;20419;-81
2022/07/14 15:27:18;;;;;;;;;;;;;;;;;;4904429;29;19927;-84
2022/07/14 15:29:47;;;;;;;;;;;;;;;;;;4891912;29;19931;-81
2022/07/14 15:32:14;;;;;;;;;;;;;;;;;;4875260;29;19999;-83
2022/07/14 15:34:43;;;;;;;;;;;;;;;;;;4891710;29;19928;-84
2022/07/14 15:37:12;;;;;;;;;;;;;;;;;;4889659;29;20057;-83
2022/07/14 15:42:26;;;;;;;;;;;;;;;;;;4891950;29;19928;-86
2022/07/14 15:44:55;;;;;;;;;;;;;;;;;;4891207;29;19927;-83
2022/07/14 15:47:23;;;;;;;;;;;;;;;;;;4888468;29;19938;-83
2022/07/14 15:49:51;;;;;;;;;;;;;;;;;;4889969;29;19927;-83
2022/07/14 15:52:18;;;;;;;;;;;;;;;;;;4890912;29;19927;-84
2022/07/14 15:54:46;;;;;;;;;;;;;;;;;;4873847;29;19927;-84
2022/07/14 15:57:14;;;;;;;;;;;;;;;;;;4892250;29;19958;-83
2022/07/14 15:59:41;;;;;;;;;;;;;;;;;;4888074;29;20421;-84
2022/07/14 16:02:08;;;;;;;;;;;;;;;;;;4873064;29;19931;-83
2022/07/14 16:04:39;;;;;;;;;;;;;;;;;;4886621;29;19931;-83
2022/07/14 16:07:06;;;;;;;;;;;;;;;;;;4888888;29;19956;-82
2022/07/14 16:09:33;;;;;;;;;;;;;;;;;;4906173;29;20370;-83
2022/07/14 16:12:05;;;;;;;;;;;;;;;;;;4894348;29;19931;-83
2022/07/14 16:14:33;;;;;;;;;;;;;;;;;;4899896;29;19931;-84
2022/07/14 16:17:00;;;;;;;;;;;;;;;;;;4897149;29;20421;-84
2022/07/14 16:22:20;;;;;;;;;;;;;;;;;;4893676;29;19990;-81
2022/07/14 16:27:41;;;;;;;;;;;;;;;;;;4890166;29;19927;-82
2022/07/14 16:30:09;;;;;;;;;;;;;;;;;;4875241;29;19962;-84
2022/07/14 16:32:37;;;;;;;;;;;;;;;;;;4891801;29;19960;-82
2022/07/14 16:35:04;;;;;;;;;;;;;;;;;;4890827;29;19934;-85
2022/07/14 16:37:31;;;;;;;;;;;;;;;;;;4891764;29;19934;-83
2022/07/14 16:39:58;;;;;;;;;;;;;;;;;;4892449;29;19924;-85
2022/07/14 16:42:26;;;;;;;;;;;;;;;;;;4891825;29;19952;-84
2022/07/14 16:44:53;;;;;;;;;;;;;;;;;;4891438;29;21155;-84
2022/07/14 16:47:20;;;;;;;;;;;;;;;;;;4874963;29;20073;-82
2022/07/14 16:49:48;;;;;;;;;;;;;;;;;;4890231;29;19951;-83
2022/07/14 16:52:15;;;;;;;;;;;;;;;;;;4892678;29;19935;-85
2022/07/14 16:54:46;;;;;;;;;;;;;;;;;;4891667;29;19962;-83
2022/07/14 16:57:14;;;;;;;;;;;;;;;;;;4893960;29;19934;-84
2022/07/14 16:59:41;;;;;;;;;;;;;;;;;;4889146;29;19954;-83
2022/07/14 17:02:08;;;;;;;;;;;;;;;;;;4889630;29;19955;-84
2022/07/14 17:04:36;;;;;;;;;;;;;;;;;;4887284;29;19931;-82
2022/07/14 17:07:03;;;;;;;;;;;;;;;;;;4886623;29;19927;-84
2022/07/14 17:09:30;;;;;;;;;;;;;;;;;;4889120;29;20018;-83
2022/07/14 17:12:01;;;;;;;;;;;;;;;;;;4889191;29;19932;-84
2022/07/14 17:14:28;;;;;;;;;;;;;;;;;;4890519;29;19938;-83